Time;durP1;ratioP1;P1;durP2;ratioP2;P2;SDS_P1;SDS_P2;PMS_P1;PMS_P2;Temp;Humidity;BMP_temperature;BMP_pressure;BME280_temperature;BME280_humidity;BME280_pressure;Samples;Min_cycle;Max_cycle;Signal;HPM_P1;HPM_P2
2023/06/16 00:00:43;;;;;;;20.75;11.27;;;;;;;;;;6276080;28;20481;-83
2023/06/16 00:03:49;;;;;;;22.90;13.67;;;;;;;;;;6268525;28;20029;-85
2023/06/16 00:06:50;;;;;;;21.63;12.85;;;;;;;;;;6264017;28;20021;-79
2023/06/16 00:09:50;;;;;;;22.67;14.40;;;;;;;;;;6265392;28;20258;-78
2023/06/16 00:12:51;;;;;;;21.17;14.67;;;;;;;;;;6269876;28;20150;-80
2023/06/16 00:15:51;;;;;;;19.92;12.82;;;;;;;;;;6263872;28;20024;-78
2023/06/16 00:18:52;;;;;;;18.20;12.33;;;;;;;;;;6274714;28;20025;-80
2023/06/16 00:21:52;;;;;;;19.65;13.48;;;;;;;;;;6270356;28;20024;-82
2023/06/16 00:24:53;;;;;;;16.20;11.65;;;;;;;;;;6264079;28;20031;-81
2023/06/16 00:27:53;;;;;;;18.43;12.93;;;;;;;;;;6272198;28;20016;-80
2023/06/16 00:30:53;;;;;;;19.20;12.23;;;;;;;;;;6267408;28;20017;-79
2023/06/16 00:33:54;;;;;;;15.23;10.97;;;;;;;;;;6270028;28;20017;-81
2023/06/16 00:36:55;;;;;;;15.17;11.90;;;;;;;;;;6272891;28;20013;-79
2023/06/16 00:39:55;;;;;;;15.70;10.05;;;;;;;;;;6270130;28;20016;-81
2023/06/16 00:42:58;;;;;;;18.63;12.20;;;;;;;;;;6274982;28;20052;-82
2023/06/16 00:45:58;;;;;;;20.75;11.90;;;;;;;;;;6269847;28;20036;-81
2023/06/16 00:48:59;;;;;;;21.60;12.60;;;;;;;;;;6270047;28;20021;-84
2023/06/16 00:52:00;;;;;;;15.17;11.13;;;;;;;;;;6276420;28;20086;-73
2023/06/16 00:55:01;;;;;;;15.65;11.45;;;;;;;;;;6268801;28;20020;-72
2023/06/16 00:58:03;;;;;;;15.80;12.07;;;;;;;;;;6271547;28;20581;-72
2023/06/16 01:01:04;;;;;;;20.85;10.85;;;;;;;;;;6269961;28;20017;-72
2023/06/16 01:04:04;;;;;;;20.92;12.68;;;;;;;;;;6269015;28;20690;-72
2023/06/16 01:07:14;;;;;;;20.95;12.82;;;;;;;;;;6269338;28;20017;-72
2023/06/16 01:10:27;;;;;;;20.27;13.40;;;;;;;;;;6268491;28;20005;-72
2023/06/16 01:13:38;;;;;;;23.00;12.82;;;;;;;;;;6262961;28;20052;-72
2023/06/16 01:16:41;;;;;;;22.52;9.95;;;;;;;;;;6268304;28;20016;-72
2023/06/16 01:19:50;;;;;;;14.30;10.18;;;;;;;;;;6263167;28;20511;-72
2023/06/16 01:23:00;;;;;;;14.02;8.93;;;;;;;;;;6269135;28;20132;-72
2023/06/16 01:26:02;;;;;;;14.25;8.95;;;;;;;;;;6268817;28;20423;-72
2023/06/16 01:29:08;;;;;;;18.17;10.98;;;;;;;;;;6271193;28;20460;-72
2023/06/16 01:32:09;;;;;;;16.75;10.18;;;;;;;;;;6264935;28;20476;-72
2023/06/16 01:35:10;;;;;;;14.30;9.25;;;;;;;;;;6247740;28;20131;-72
2023/06/16 01:38:11;;;;;;;19.07;10.60;;;;;;;;;;6274680;28;20505;-72
2023/06/16 01:41:11;;;;;;;14.85;11.30;;;;;;;;;;6266528;28;20398;-72
2023/06/16 01:44:12;;;;;;;15.10;9.33;;;;;;;;;;6269765;28;20024;-72
2023/06/16 01:47:13;;;;;;;15.33;9.90;;;;;;;;;;6267864;28;20023;-72
2023/06/16 01:50:13;;;;;;;16.67;10.97;;;;;;;;;;6268833;28;20028;-72
2023/06/16 01:53:13;;;;;;;18.87;10.97;;;;;;;;;;6272527;28;20501;-72
2023/06/16 01:56:13;;;;;;;13.80;9.65;;;;;;;;;;6269446;28;20043;-72
2023/06/16 01:59:14;;;;;;;15.30;10.17;;;;;;;;;;6271028;28;20105;-72
2023/06/16 02:02:17;;;;;;;14.97;10.30;;;;;;;;;;6272832;28;20048;-81
2023/06/16 02:05:20;;;;;;;16.67;10.68;;;;;;;;;;6267492;28;20069;-79
2023/06/16 02:08:23;;;;;;;17.15;9.43;;;;;;;;;;6267884;28;20009;-82
2023/06/16 02:11:23;;;;;;;11.63;8.07;;;;;;;;;;6267713;28;20024;-81
2023/06/16 02:14:27;;;;;;;13.63;8.65;;;;;;;;;;6268756;28;20072;-82
2023/06/16 02:17:28;;;;;;;17.45;10.50;;;;;;;;;;6266982;28;20017;-82
2023/06/16 02:20:28;;;;;;;13.70;9.50;;;;;;;;;;6268187;28;20021;-81
2023/06/16 02:23:28;;;;;;;15.63;9.95;;;;;;;;;;6267389;28;20835;-82
2023/06/16 02:26:28;;;;;;;17.60;10.47;;;;;;;;;;6272171;28;20062;-81
2023/06/16 02:29:29;;;;;;;10.77;7.68;;;;;;;;;;6271453;28;20042;-80
2023/06/16 02:32:29;;;;;;;16.20;10.33;;;;;;;;;;6267873;28;20724;-81
2023/06/16 02:35:30;;;;;;;14.52;10.38;;;;;;;;;;6269624;28;20029;-80
2023/06/16 02:38:30;;;;;;;17.90;11.05;;;;;;;;;;6267622;28;20066;-79
2023/06/16 02:41:31;;;;;;;18.47;12.13;;;;;;;;;;6267829;28;20591;-80
2023/06/16 02:44:31;;;;;;;20.35;11.80;;;;;;;;;;6269669;28;20029;-79
2023/06/16 02:47:32;;;;;;;20.25;13.15;;;;;;;;;;6269962;28;20024;-80
2023/06/16 02:50:32;;;;;;;17.57;12.07;;;;;;;;;;6268561;28;20074;-80
2023/06/16 02:53:33;;;;;;;17.10;10.47;;;;;;;;;;6267758;28;20050;-79
2023/06/16 02:56:33;;;;;;;17.27;11.98;;;;;;;;;;6249002;28;20025;-80
2023/06/16 02:59:34;;;;;;;16.33;10.27;;;;;;;;;;6259168;28;20118;-81
2023/06/16 03:02:35;;;;;;;19.73;11.67;;;;;;;;;;6267153;28;20028;-80
2023/06/16 03:05:36;;;;;;;14.57;10.03;;;;;;;;;;6271552;28;20047;-80
2023/06/16 03:08:36;;;;;;;18.38;10.93;;;;;;;;;;6261769;28;20124;-81
2023/06/16 03:11:36;;;;;;;19.92;13.07;;;;;;;;;;6266494;28;20052;-72
2023/06/16 03:14:36;;;;;;;16.10;11.82;;;;;;;;;;6265861;28;20040;-72
2023/06/16 03:17:37;;;;;;;17.47;12.10;;;;;;;;;;6266807;28;20108;-72
2023/06/16 03:20:39;;;;;;;16.63;11.57;;;;;;;;;;6266617;28;20048;-72
2023/06/16 03:23:41;;;;;;;21.85;12.45;;;;;;;;;;6252663;28;20028;-72
2023/06/16 03:26:42;;;;;;;16.17;12.05;;;;;;;;;;6266921;28;20104;-72
2023/06/16 03:29:43;;;;;;;19.20;12.60;;;;;;;;;;6246410;28;20459;-72
2023/06/16 03:32:44;;;;;;;19.77;13.30;;;;;;;;;;6265916;28;20036;-83
2023/06/16 03:35:44;;;;;;;21.20;12.33;;;;;;;;;;6271064;28;20104;-83
2023/06/16 03:38:44;;;;;;;17.73;13.25;;;;;;;;;;6277392;28;20565;-83
2023/06/16 03:41:45;;;;;;;22.00;12.73;;;;;;;;;;6274404;28;20494;-83
2023/06/16 03:44:45;;;;;;;14.87;10.57;;;;;;;;;;6271591;28;20469;-83
2023/06/16 03:47:45;;;;;;;15.60;10.53;;;;;;;;;;6271027;28;20033;-81
2023/06/16 03:50:46;;;;;;;18.60;12.53;;;;;;;;;;6271060;28;20487;-82
2023/06/16 03:53:46;;;;;;;16.30;11.53;;;;;;;;;;6272153;28;20024;-83
2023/06/16 03:56:46;;;;;;;21.93;11.80;;;;;;;;;;6272881;28;20024;-81
2023/06/16 03:59:46;;;;;;;22.13;12.83;;;;;;;;;;6271612;28;20022;-82
2023/06/16 04:02:46;;;;;;;20.27;14.97;;;;;;;;;;6270930;28;20017;-81
2023/06/16 04:05:47;;;;;;;20.27;13.17;;;;;;;;;;6274187;28;20020;-80
2023/06/16 04:08:47;;;;;;;15.88;12.07;;;;;;;;;;6271718;28;20117;-81
2023/06/16 04:11:47;;;;;;;21.85;16.30;;;;;;;;;;6270983;28;20035;-81
2023/06/16 04:14:47;;;;;;;26.33;16.05;;;;;;;;;;6263923;28;20041;-81
2023/06/16 04:17:47;;;;;;;22.03;15.60;;;;;;;;;;6264442;28;20033;-82
2023/06/16 04:20:48;;;;;;;23.85;16.05;;;;;;;;;;6275100;28;20057;-80
2023/06/16 04:23:48;;;;;;;20.73;15.47;;;;;;;;;;6270080;28;20024;-82
2023/06/16 04:26:48;;;;;;;24.67;15.37;;;;;;;;;;6270106;28;20036;-82
2023/06/16 04:29:49;;;;;;;25.90;16.58;;;;;;;;;;6269966;28;20494;-82
2023/06/16 04:32:50;;;;;;;24.23;14.95;;;;;;;;;;6272620;28;20541;-83
2023/06/16 04:35:50;;;;;;;18.10;13.93;;;;;;;;;;6271647;28;20017;-82
2023/06/16 04:38:52;;;;;;;21.20;14.40;;;;;;;;;;6269288;28;20524;-83
2023/06/16 04:41:52;;;;;;;24.27;14.00;;;;;;;;;;6269699;28;20044;-83
2023/06/16 04:44:52;;;;;;;18.60;11.97;;;;;;;;;;6268106;28;20021;-82
2023/06/16 04:47:53;;;;;;;28.73;15.30;;;;;;;;;;6269107;28;20036;-82
2023/06/16 04:50:53;;;;;;;24.60;13.83;;;;;;;;;;6268568;28;20028;-81
2023/06/16 04:53:53;;;;;;;19.50;12.33;;;;;;;;;;6269007;28;20028;-81
2023/06/16 04:56:53;;;;;;;17.48;12.63;;;;;;;;;;6268986;28;20021;-81
2023/06/16 04:59:53;;;;;;;18.87;13.80;;;;;;;;;;6269046;28;20021;-80
2023/06/16 05:02:54;;;;;;;19.67;12.02;;;;;;;;;;6269578;28;20325;-82
2023/06/16 05:05:55;;;;;;;20.67;12.13;;;;;;;;;;6266563;28;20071;-81
2023/06/16 05:08:55;;;;;;;22.23;13.30;;;;;;;;;;6273506;28;20021;-82
2023/06/16 05:11:56;;;;;;;18.10;12.20;;;;;;;;;;6272015;28;20031;-83
2023/06/16 05:14:56;;;;;;;18.87;11.83;;;;;;;;;;6268574;28;20020;-83
2023/06/16 05:17:56;;;;;;;23.37;12.70;;;;;;;;;;6250790;28;20107;-83
2023/06/16 05:20:56;;;;;;;13.47;9.93;;;;;;;;;;6268332;28;20013;-82
2023/06/16 05:23:57;;;;;;;19.53;11.20;;;;;;;;;;6273005;28;20075;-84
2023/06/16 05:26:57;;;;;;;16.10;9.43;;;;;;;;;;6270889;28;20035;-82
2023/06/16 05:29:58;;;;;;;16.83;10.18;;;;;;;;;;6275738;28;20036;-84
2023/06/16 05:32:58;;;;;;;15.13;8.57;;;;;;;;;;6259605;28;20036;-75
2023/06/16 05:35:58;;;;;;;19.90;15.05;;;;;;;;;;6265525;28;20115;-75
2023/06/16 05:38:58;;;;;;;13.80;8.87;;;;;;;;;;6268533;28;20041;-75
2023/06/16 05:41:58;;;;;;;16.40;8.13;;;;;;;;;;6250329;28;20052;-75
2023/06/16 05:44:59;;;;;;;13.83;7.67;;;;;;;;;;6265260;28;20032;-76
2023/06/16 05:47:59;;;;;;;10.73;7.50;;;;;;;;;;6264120;28;20013;-75
2023/06/16 05:50:59;;;;;;;13.27;7.40;;;;;;;;;;6279113;28;20028;-75
2023/06/16 05:53:59;;;;;;;10.27;7.07;;;;;;;;;;6265630;28;20045;-80
2023/06/16 05:57:00;;;;;;;10.97;6.40;;;;;;;;;;6264989;28;20757;-81
2023/06/16 06:00:00;;;;;;;10.30;6.63;;;;;;;;;;6266000;28;20428;-80
2023/06/16 06:03:00;;;;;;;13.13;6.72;;;;;;;;;;6268457;28;20532;-82
2023/06/16 06:06:01;;;;;;;15.63;7.43;;;;;;;;;;6267865;28;20019;-81
2023/06/16 06:09:01;;;;;;;13.52;6.07;;;;;;;;;;6267861;28;20104;-81
2023/06/16 06:12:02;;;;;;;7.03;5.00;;;;;;;;;;6262175;28;20542;-73
2023/06/16 06:15:02;;;;;;;10.93;6.03;;;;;;;;;;6259735;28;20021;-73
2023/06/16 06:18:02;;;;;;;11.17;6.10;;;;;;;;;;6266852;28;20387;-73
2023/06/16 06:21:02;;;;;;;13.83;5.63;;;;;;;;;;6266311;28;20115;-73
2023/06/16 06:24:03;;;;;;;9.80;5.35;;;;;;;;;;6266742;28;20017;-73
2023/06/16 06:27:03;;;;;;;12.37;5.17;;;;;;;;;;6266788;28;20431;-73
2023/06/16 06:30:03;;;;;;;10.00;5.63;;;;;;;;;;6266013;28;20019;-73
2023/06/16 06:33:04;;;;;;;8.33;5.23;;;;;;;;;;6267544;28;20025;-73
2023/06/16 06:36:04;;;;;;;8.33;5.17;;;;;;;;;;6261045;28;20266;-73
2023/06/16 06:39:04;;;;;;;13.90;6.00;;;;;;;;;;6259671;28;20021;-73
2023/06/16 06:42:05;;;;;;;9.20;4.90;;;;;;;;;;6265012;28;20100;-81
2023/06/16 06:45:06;;;;;;;8.03;5.23;;;;;;;;;;6265882;28;20031;-83
2023/06/16 06:48:06;;;;;;;6.97;4.57;;;;;;;;;;6245510;28;20252;-80
2023/06/16 06:51:08;;;;;;;11.37;4.53;;;;;;;;;;6261431;28;20044;-84
2023/06/16 06:54:09;;;;;;;10.25;4.85;;;;;;;;;;6264467;28;20009;-85
2023/06/16 06:57:09;;;;;;;7.90;4.85;;;;;;;;;;6262702;28;20016;-85
2023/06/16 07:00:10;;;;;;;8.50;4.97;;;;;;;;;;6265989;28;20120;-85
2023/06/16 07:03:12;;;;;;;;;;;;;;;;;;6270499;28;20032;-83
2023/06/16 07:06:12;;;;;;;9.45;4.35;;;;;;;;;;6265009;28;20003;-86
2023/06/16 07:09:12;;;;;;;8.20;4.43;;;;;;;;;;6245397;28;20018;-87
2023/06/16 07:12:13;;;;;;;11.53;4.90;;;;;;;;;;6269534;28;20041;-88
2023/06/16 07:15:14;;;;;;;7.63;4.75;;;;;;;;;;6271717;28;20099;-87
2023/06/16 07:18:14;;;;;;;6.95;4.55;;;;;;;;;;6272573;28;20020;-87
2023/06/16 07:21:15;;;;;;;11.33;5.93;;;;;;;;;;6268417;28;20543;-83
2023/06/16 07:24:15;;;;;;;10.47;5.33;;;;;;;;;;6264333;28;20482;-85
2023/06/16 07:27:15;;;;;;;9.82;4.93;;;;;;;;;;6267489;28;20009;-87
2023/06/16 07:30:15;;;;;;;9.83;5.30;;;;;;;;;;6265535;28;20017;-87
2023/06/16 07:33:16;;;;;;;9.10;5.73;;;;;;;;;;6270527;28;20013;-87
2023/06/16 07:36:16;;;;;;;14.33;6.97;;;;;;;;;;6250037;28;20275;-88
2023/06/16 07:39:17;;;;;;;13.23;6.03;;;;;;;;;;6251828;28;20021;-86
2023/06/16 07:42:17;;;;;;;11.35;5.00;;;;;;;;;;6268197;28;20195;-85
2023/06/16 07:45:17;;;;;;;11.17;5.93;;;;;;;;;;6249920;28;20016;-88
2023/06/16 07:48:18;;;;;;;11.67;6.53;;;;;;;;;;6268316;28;20075;-88
2023/06/16 07:51:20;;;;;;;11.47;7.70;;;;;;;;;;6268312;28;20354;-86
2023/06/16 07:54:20;;;;;;;12.65;6.88;;;;;;;;;;6268470;28;20073;-85
2023/06/16 07:57:20;;;;;;;12.93;5.90;;;;;;;;;;6270965;28;20475;-87
2023/06/16 08:00:21;;;;;;;8.40;5.82;;;;;;;;;;6270378;28;20024;-87
2023/06/16 08:03:21;;;;;;;12.80;7.90;;;;;;;;;;6270920;28;20060;-86
2023/06/16 08:06:21;;;;;;;12.63;7.57;;;;;;;;;;6264966;28;20017;-88
2023/06/16 08:09:22;;;;;;;16.13;8.03;;;;;;;;;;6272407;28;20017;-90
2023/06/16 08:12:23;;;;;;;13.50;7.80;;;;;;;;;;6269682;28;20037;-87
2023/06/16 08:15:23;;;;;;;10.80;6.93;;;;;;;;;;6270382;28;20052;-89
2023/06/16 08:18:24;;;;;;;11.50;6.70;;;;;;;;;;6264509;28;20048;-87
2023/06/16 08:21:24;;;;;;;12.73;6.78;;;;;;;;;;6233401;28;20040;-89
2023/06/16 08:24:24;;;;;;;;;;;;;;;;;;6272439;28;20025;-91
2023/06/16 08:27:25;;;;;;;11.18;6.55;;;;;;;;;;6271423;28;19927;-91
2023/06/16 08:30:25;;;;;;;;;;;;;;;;;;6273156;28;20051;-87
2023/06/16 08:33:25;;;;;;;14.97;7.40;;;;;;;;;;6274424;28;19955;-85
2023/06/16 08:36:26;;;;;;;10.60;7.10;;;;;;;;;;6273587;28;20041;-85
2023/06/16 08:39:26;;;;;;;9.17;6.13;;;;;;;;;;6268158;28;20013;-86
2023/06/16 08:42:27;;;;;;;10.57;5.50;;;;;;;;;;6267565;28;20981;-89
2023/06/16 08:45:28;;;;;;;12.98;5.88;;;;;;;;;;6273739;28;20528;-89
2023/06/16 08:48:30;;;;;;;10.30;6.25;;;;;;;;;;6268470;28;20016;-91
2023/06/16 08:51:34;;;;;;;12.85;5.72;;;;;;;;;;6273666;28;20017;-77
2023/06/16 08:54:37;;;;;;;8.50;5.93;;;;;;;;;;6269594;28;20365;-86
2023/06/16 08:57:38;;;;;;;10.70;6.43;;;;;;;;;;6270055;28;20017;-85
2023/06/16 09:00:41;;;;;;;9.30;5.70;;;;;;;;;;6269941;28;20021;-91
2023/06/16 09:03:41;;;;;;;13.23;6.82;;;;;;;;;;6253888;28;20061;-88
2023/06/16 09:06:43;;;;;;;;;;;;;;;;;;6264607;28;20023;-86
2023/06/16 09:09:43;;;;;;;12.00;6.40;;;;;;;;;;6274627;28;19904;-88
2023/06/16 09:12:43;;;;;;;;;;;;;;;;;;6273142;28;20055;-90
2023/06/16 09:15:46;;;;;;;12.77;6.20;;;;;;;;;;6274821;28;19909;-89
2023/06/16 09:18:47;;;;;;;10.25;5.72;;;;;;;;;;6274127;28;20044;-84
2023/06/16 09:21:53;;;;;;;10.88;6.95;;;;;;;;;;6272889;28;20053;-89
2023/06/16 09:24:54;;;;;;;14.95;6.97;;;;;;;;;;6270174;28;20021;-85
2023/06/16 09:27:56;;;;;;;9.68;6.45;;;;;;;;;;6277234;28;20025;-85
2023/06/16 09:31:00;;;;;;;8.23;5.50;;;;;;;;;;6283339;28;20021;-85
2023/06/16 09:34:05;;;;;;;12.30;6.93;;;;;;;;;;6279427;28;20052;-85
2023/06/16 09:37:06;;;;;;;11.15;6.50;;;;;;;;;;6279145;28;20943;-89
2023/06/16 09:40:07;;;;;;;;;;;;;;;;;;6279714;28;20025;-86
2023/06/16 09:43:10;;;;;;;12.95;5.05;;;;;;;;;;6282401;28;19966;-86
2023/06/16 09:46:13;;;;;;;9.98;5.85;;;;;;;;;;6276441;28;20013;-87
2023/06/16 09:49:24;;;;;;;6.60;4.93;;;;;;;;;;6275724;28;20082;-89
2023/06/16 09:52:25;;;;;;;8.48;5.28;;;;;;;;;;6269713;28;20116;-87
2023/06/16 09:55:28;;;;;;;11.43;5.75;;;;;;;;;;6262963;28;20111;-88
2023/06/16 09:58:28;;;;;;;11.68;5.18;;;;;;;;;;6270786;28;20033;-88
2023/06/16 10:01:28;;;;;;;;;;;;;;;;;;6272130;28;20033;-88
2023/06/16 10:04:30;;;;;;;8.02;4.82;;;;;;;;;;6273044;28;19909;-89
2023/06/16 10:07:31;;;;;;;9.00;5.65;;;;;;;;;;6272088;28;20053;-88
2023/06/16 10:10:32;;;;;;;;;;;;;;;;;;6268764;28;20075;-87
2023/06/16 10:13:34;;;;;;;9.60;5.63;;;;;;;;;;6265694;28;19999;-75
2023/06/16 10:16:36;;;;;;;8.85;5.53;;;;;;;;;;6258553;28;20083;-74
2023/06/16 10:19:44;;;;;;;10.48;5.60;;;;;;;;;;6262923;28;20013;-75
2023/06/16 10:22:45;;;;;;;7.60;5.25;;;;;;;;;;6258397;28;20364;-74
2023/06/16 10:25:45;;;;;;;9.85;5.53;;;;;;;;;;6259846;28;20048;-74
2023/06/16 10:28:46;;;;;;;9.73;5.20;;;;;;;;;;6257052;28;20023;-74
2023/06/16 10:31:49;;;;;;;8.05;5.28;;;;;;;;;;6249042;28;20104;-74
2023/06/16 10:34:51;;;;;;;7.55;4.95;;;;;;;;;;6266019;28;20029;-75
2023/06/16 10:37:52;;;;;;;8.25;5.47;;;;;;;;;;6266413;28;20028;-75
2023/06/16 10:40:52;;;;;;;;;;;;;;;;;;6267637;28;20040;-75
2023/06/16 10:43:52;;;;;;;9.13;6.35;;;;;;;;;;6264163;28;19916;-74
2023/06/16 10:47:08;;;;;;;10.13;5.43;;;;;;;;;;6267841;28;20495;-75
2023/06/16 10:50:08;;;;;;;8.80;5.72;;;;;;;;;;6260336;28;20013;-74
2023/06/16 10:53:10;;;;;;;13.15;5.55;;;;;;;;;;6275406;28;20018;-87
2023/06/16 10:56:10;;;;;;;10.45;6.75;;;;;;;;;;6263305;28;20059;-93
2023/06/16 10:59:10;;;;;;;;;;;;;;;;;;6262593;28;20025;-91
2023/06/16 11:02:16;;;;;;;12.63;6.10;;;;;;;;;;6271132;28;19916;-90
2023/06/16 11:05:20;;;;;;;13.88;8.73;;;;;;;;;;6256260;28;20017;-86
2023/06/16 11:08:20;;;;;;;16.05;8.30;;;;;;;;;;6265094;28;20036;-88
2023/06/16 11:11:20;;;;;;;12.80;9.87;;;;;;;;;;6267165;28;20092;-93
2023/06/16 11:14:21;;;;;;;11.73;8.00;;;;;;;;;;6274760;28;20047;-92
2023/06/16 11:17:22;;;;;;;11.87;9.23;;;;;;;;;;6274286;28;20729;-89
2023/06/16 11:20:22;;;;;;;17.23;8.40;;;;;;;;;;6279181;28;20032;-86
2023/06/16 11:23:23;;;;;;;14.67;9.10;;;;;;;;;;6271055;28;20025;-75
2023/06/16 11:26:23;;;;;;;13.30;9.77;;;;;;;;;;6265994;28;20009;-74
2023/06/16 11:29:25;;;;;;;14.00;10.13;;;;;;;;;;6266636;28;20009;-73
2023/06/16 11:32:32;;;;;;;16.13;8.90;;;;;;;;;;6264933;28;20040;-75
2023/06/16 11:35:33;;;;;;;14.23;9.35;;;;;;;;;;6265084;28;20025;-75
2023/06/16 11:38:33;;;;;;;16.27;10.53;;;;;;;;;;6264446;28;20023;-75
2023/06/16 11:41:33;;;;;;;11.25;9.18;;;;;;;;;;6268302;28;20015;-75
2023/06/16 11:44:34;;;;;;;13.40;8.93;;;;;;;;;;6269171;28;20495;-75
2023/06/16 11:47:34;;;;;;;12.90;8.38;;;;;;;;;;6266710;28;20095;-75
2023/06/16 11:50:35;;;;;;;15.10;9.53;;;;;;;;;;6270473;28;20021;-75
2023/06/16 11:53:35;;;;;;;14.05;8.52;;;;;;;;;;6270257;28;20025;-75
2023/06/16 11:56:35;;;;;;;13.65;8.25;;;;;;;;;;6284464;28;20494;-76
2023/06/16 11:59:36;;;;;;;12.60;8.13;;;;;;;;;;6269961;28;20103;-75
2023/06/16 12:02:37;;;;;;;11.90;7.97;;;;;;;;;;6271331;28;20475;-75
2023/06/16 12:05:38;;;;;;;11.60;8.10;;;;;;;;;;6269998;28;20021;-75
2023/06/16 12:08:43;;;;;;;13.05;7.57;;;;;;;;;;6270151;28;20017;-75
2023/06/16 12:11:44;;;;;;;12.10;7.50;;;;;;;;;;6267841;28;20028;-75
2023/06/16 12:14:44;;;;;;;11.32;8.98;;;;;;;;;;6251336;28;20047;-75
2023/06/16 12:17:47;;;;;;;10.20;6.50;;;;;;;;;;6268910;28;20084;-76
2023/06/16 12:20:47;;;;;;;11.98;7.97;;;;;;;;;;6268763;28;20024;-76
2023/06/16 12:24:07;;;;;;;12.87;8.53;;;;;;;;;;6267302;28;20116;-75
2023/06/16 12:27:08;;;;;;;12.37;7.23;;;;;;;;;;6262493;28;20112;-75
2023/06/16 12:30:08;;;;;;;12.85;8.82;;;;;;;;;;6263555;28;20014;-75
2023/06/16 12:33:15;;;;;;;15.77;7.97;;;;;;;;;;6258682;28;20009;-90
2023/06/16 12:36:16;;;;;;;13.35;7.78;;;;;;;;;;6281572;28;20017;-87
2023/06/16 12:39:17;;;;;;;12.80;7.28;;;;;;;;;;6286286;28;20024;-88
2023/06/16 12:42:22;;;;;;;13.38;7.65;;;;;;;;;;6284437;28;20021;-89
2023/06/16 12:45:22;;;;;;;12.40;8.32;;;;;;;;;;6283296;28;20031;-87
2023/06/16 12:48:23;;;;;;;14.35;8.88;;;;;;;;;;6286437;28;20013;-87
2023/06/16 12:51:23;;;;;;;11.68;6.55;;;;;;;;;;6275774;28;20028;-88
2023/06/16 12:54:23;;;;;;;17.13;7.17;;;;;;;;;;6286332;28;20009;-85
2023/06/16 12:57:24;;;;;;;12.10;7.70;;;;;;;;;;6283501;28;20387;-89
2023/06/16 13:00:27;;;;;;;13.27;7.75;;;;;;;;;;6279022;28;20017;-90
2023/06/16 13:03:27;;;;;;;11.88;7.55;;;;;;;;;;6281165;28;20116;-84
2023/06/16 13:06:27;;;;;;;13.17;8.00;;;;;;;;;;6262236;28;20033;-89
2023/06/16 13:09:28;;;;;;;14.88;9.00;;;;;;;;;;6285146;28;20483;-89
2023/06/16 13:12:28;;;;;;;10.40;8.33;;;;;;;;;;6282287;28;20045;-87
2023/06/16 13:15:28;;;;;;;11.07;7.75;;;;;;;;;;6284480;28;20052;-87
2023/06/16 13:18:28;;;;;;;15.30;8.00;;;;;;;;;;6281693;28;20019;-88
2023/06/16 13:21:28;;;;;;;12.68;8.48;;;;;;;;;;6272765;28;20021;-89
2023/06/16 13:24:29;;;;;;;12.97;8.27;;;;;;;;;;6276476;28;20020;-88
2023/06/16 13:27:29;;;;;;;12.07;7.03;;;;;;;;;;6275857;28;20017;-93
2023/06/16 13:30:30;;;;;;;13.20;8.13;;;;;;;;;;6278207;28;20021;-90
2023/06/16 13:33:30;;;;;;;12.10;7.78;;;;;;;;;;6273026;28;20021;-91
2023/06/16 13:36:32;;;;;;;11.85;8.32;;;;;;;;;;6272941;28;20024;-90
2023/06/16 13:39:32;;;;;;;14.25;8.00;;;;;;;;;;6274521;28;20497;-89
2023/06/16 13:42:34;;;;;;;12.20;7.63;;;;;;;;;;6273052;28;20029;-91
2023/06/16 13:45:35;;;;;;;18.13;7.05;;;;;;;;;;6278247;28;20013;-90
2023/06/16 13:48:35;;;;;;;;;;;;;;;;;;6279123;28;20013;-86
2023/06/16 13:51:35;;;;;;;11.20;8.27;;;;;;;;;;6279713;28;19976;-89
2023/06/16 13:54:35;;;;;;;;;;;;;;;;;;6275179;28;20032;-86
2023/06/16 13:57:36;;;;;;;14.23;7.85;;;;;;;;;;6277322;28;19905;-90
2023/06/16 14:00:36;;;;;;;;;;;;;;;;;;6276895;28;20028;-87
2023/06/16 14:03:36;;;;;;;11.77;7.80;;;;;;;;;;6278691;28;19958;-88
2023/06/16 14:06:36;;;;;;;13.00;7.87;;;;;;;;;;6270826;28;20016;-87
2023/06/16 14:09:36;;;;;;;17.55;8.07;;;;;;;;;;6279680;28;20024;-82
2023/06/16 14:12:37;;;;;;;10.87;7.10;;;;;;;;;;6281247;28;20132;-84
2023/06/16 14:15:37;;;;;;;11.63;7.97;;;;;;;;;;6281587;28;20028;-83
2023/06/16 14:18:37;;;;;;;10.67;8.00;;;;;;;;;;6285227;28;20062;-87
2023/06/16 14:21:37;;;;;;;13.90;7.32;;;;;;;;;;6272909;28;20017;-84
2023/06/16 14:24:38;;;;;;;11.93;7.67;;;;;;;;;;6275514;28;20102;-87
2023/06/16 14:27:38;;;;;;;14.57;7.68;;;;;;;;;;6279484;28;20100;-86
2023/06/16 14:30:40;;;;;;;10.55;6.95;;;;;;;;;;6276986;28;20104;-89
2023/06/16 14:33:40;;;;;;;11.40;7.72;;;;;;;;;;6282933;28;20020;-87
2023/06/16 14:36:40;;;;;;;10.60;7.50;;;;;;;;;;6281635;28;20070;-86
2023/06/16 14:39:40;;;;;;;13.43;7.57;;;;;;;;;;6282182;28;20498;-84
2023/06/16 14:42:41;;;;;;;14.60;8.18;;;;;;;;;;6280434;28;20044;-87
2023/06/16 14:45:41;;;;;;;15.37;7.57;;;;;;;;;;6269494;28;20009;-87
2023/06/16 14:48:41;;;;;;;13.75;7.90;;;;;;;;;;6269103;28;20387;-88
2023/06/16 14:51:43;;;;;;;14.50;8.50;;;;;;;;;;6278603;28;20096;-74
2023/06/16 14:54:43;;;;;;;12.40;7.68;;;;;;;;;;6266760;28;20036;-74
2023/06/16 14:57:43;;;;;;;14.02;7.15;;;;;;;;;;6249178;28;20491;-74
2023/06/16 15:00:43;;;;;;;12.93;7.63;;;;;;;;;;6265579;28;20032;-74
2023/06/16 15:03:45;;;;;;;14.93;7.37;;;;;;;;;;6276675;28;20032;-86
2023/06/16 15:06:45;;;;;;;11.55;6.78;;;;;;;;;;6263371;28;20025;-88
2023/06/16 15:09:45;;;;;;;12.67;6.50;;;;;;;;;;6277480;28;20024;-87
2023/06/16 15:12:46;;;;;;;16.67;7.03;;;;;;;;;;6271819;28;20406;-87
2023/06/16 15:15:46;;;;;;;10.35;6.35;;;;;;;;;;6273566;28;20386;-89
2023/06/16 15:18:46;;;;;;;12.87;6.07;;;;;;;;;;6273756;28;20021;-88
2023/06/16 15:21:46;;;;;;;9.97;5.40;;;;;;;;;;6274675;28;20028;-90
2023/06/16 15:24:46;;;;;;;10.47;6.07;;;;;;;;;;6278281;28;20021;-88
2023/06/16 15:27:47;;;;;;;10.43;6.70;;;;;;;;;;6279458;28;20259;-89
2023/06/16 15:30:48;;;;;;;11.87;6.73;;;;;;;;;;6282199;28;20017;-87
2023/06/16 15:33:48;;;;;;;11.27;6.28;;;;;;;;;;6282201;28;20016;-87
2023/06/16 15:36:48;;;;;;;12.18;7.22;;;;;;;;;;6287040;28;20032;-87
2023/06/16 15:39:48;;;;;;;12.60;5.57;;;;;;;;;;6285638;28;20021;-83
2023/06/16 15:42:57;;;;;;;10.57;6.20;;;;;;;;;;6272445;28;20040;-90
2023/06/16 15:45:58;;;;;;;10.13;6.07;;;;;;;;;;6271399;28;20032;-90
2023/06/16 15:48:58;;;;;;;10.77;5.28;;;;;;;;;;6284710;28;20013;-86
2023/06/16 15:52:01;;;;;;;9.33;5.17;;;;;;;;;;6275911;28;20132;-90
2023/06/16 15:55:01;;;;;;;10.55;6.00;;;;;;;;;;6282507;28;20013;-88
2023/06/16 15:58:02;;;;;;;16.13;7.47;;;;;;;;;;6282752;28;20028;-85
2023/06/16 16:01:02;;;;;;;17.90;7.80;;;;;;;;;;6283996;28;20025;-88
2023/06/16 16:04:02;;;;;;;15.77;7.27;;;;;;;;;;6282766;28;20094;-89
2023/06/16 16:07:02;;;;;;;14.50;7.82;;;;;;;;;;6274647;28;20029;-89
2023/06/16 16:10:03;;;;;;;12.43;6.73;;;;;;;;;;6280811;28;20049;-82
2023/06/16 16:13:03;;;;;;;11.77;6.28;;;;;;;;;;6285257;28;20330;-88
2023/06/16 16:16:04;;;;;;;13.40;6.77;;;;;;;;;;6284670;28;20114;-87
2023/06/16 16:19:04;;;;;;;11.05;6.45;;;;;;;;;;6281852;28;20119;-88
2023/06/16 16:22:06;;;;;;;12.02;7.25;;;;;;;;;;6277480;28;20026;-83
2023/06/16 16:25:06;;;;;;;10.57;6.75;;;;;;;;;;6281354;28;20062;-87
2023/06/16 16:28:06;;;;;;;15.07;8.50;;;;;;;;;;6280236;28;20021;-87
2023/06/16 16:31:06;;;;;;;16.53;7.90;;;;;;;;;;6280927;28;20021;-80
2023/06/16 16:34:06;;;;;;;11.20;6.72;;;;;;;;;;6282562;28;20025;-88
2023/06/16 16:37:07;;;;;;;;;;;;;;;;;;6280201;28;20047;-82
2023/06/16 16:40:07;;;;;;;11.10;6.22;;;;;;;;;;6283072;28;19909;-90
2023/06/16 16:43:07;;;;;;;;;;;;;;;;;;6282214;28;20397;-85
2023/06/16 16:46:07;;;;;;;13.13;7.47;;;;;;;;;;6282374;28;19911;-85
2023/06/16 16:49:08;;;;;;;;;;;;;;;;;;6280481;28;20017;-89
2023/06/16 16:52:08;;;;;;;11.55;6.85;;;;;;;;;;6280846;28;19904;-87
2023/06/16 16:55:08;;;;;;;9.27;6.80;;;;;;;;;;6262655;28;20029;-88
2023/06/16 16:58:08;;;;;;;7.07;5.30;;;;;;;;;;6280708;28;20031;-85
2023/06/16 17:01:10;;;;;;;9.15;5.75;;;;;;;;;;6279809;28;20020;-86
2023/06/16 17:04:10;;;;;;;11.50;6.38;;;;;;;;;;6281826;28;20029;-85
2023/06/16 17:07:11;;;;;;;8.52;5.95;;;;;;;;;;6277107;28;20536;-89
2023/06/16 17:10:11;;;;;;;11.18;6.13;;;;;;;;;;6283357;28;20087;-86
2023/06/16 17:13:11;;;;;;;11.03;5.87;;;;;;;;;;6284806;28;20482;-86
2023/06/16 17:16:12;;;;;;;9.63;6.30;;;;;;;;;;6261908;28;20271;-88
2023/06/16 17:19:12;;;;;;;9.30;6.35;;;;;;;;;;6286487;28;20020;-83
2023/06/16 17:22:13;;;;;;;8.40;6.37;;;;;;;;;;6285256;28;20048;-90
2023/06/16 17:25:13;;;;;;;9.80;6.10;;;;;;;;;;6286079;28;20375;-87
2023/06/16 17:28:13;;;;;;;;;;;;;;;;;;6277447;28;20258;-89
2023/06/16 17:31:13;;;;;;;11.77;6.63;;;;;;;;;;6281474;28;20065;-88
2023/06/16 17:34:13;;;;;;;;;;;;;;;;;;6264638;28;20102;-87
2023/06/16 17:37:14;;;;;;;10.07;6.55;;;;;;;;;;6288842;28;19923;-84
2023/06/16 17:40:14;;;;;;;;;;;;;;;;;;6289286;28;20048;-88
2023/06/16 17:43:14;;;;;;;10.50;5.85;;;;;;;;;;6295091;28;19916;-82
2023/06/16 17:46:16;;;;;;;8.40;5.57;;;;;;;;;;6286008;28;20044;-86
2023/06/16 17:49:18;;;;;;;9.38;6.40;;;;;;;;;;6272313;28;20036;-87
2023/06/16 17:52:20;;;;;;;9.75;5.93;;;;;;;;;;6271351;28;20016;-89